Date,TemperatureHighF,TemperatureAvgF,TemperatureLowF,DewpointHighF,DewpointAvgF,DewpointLowF,HumidityHigh,HumidityAvg,HumidityLow,PressureMaxIn,PressureMinIn,WindSpeedMaxMPH,WindSpeedAvgMPH,GustSpeedMaxMPH,PrecipitationSumIn
2013-2-1,6.4,0.3,-6.9,2.4,-6.1,-11.4,90,74,56,30.28,30.08,13,2,23,0.15
2013-2-2,15.3,7.9,4.5,4.0,2.3,-0.7,91,78,59,30.07,29.97,12,3,22,0.00
2013-2-3,22.5,14.0,6.3,12.9,8.2,3.0,93,78,58,30.00,29.90,16,5,28,0.00
2013-2-4,21.3,14.0,9.3,13.4,7.0,1.9,96,74,53,29.96,29.90,12,3,20,0.46
2013-2-5,28.4,19.1,6.8,23.9,15.0,2.2,98,84,76,30.06,29.74,13,5,22,0.00
2013-2-6,34.2,22.9,5.1,30.2,17.3,3.7,96,80,52,30.18,30.01,10,3,20,0.00
2013-2-7,34.9,30.6,21.0,34.6,30.1,20.8,99,98,92,30.06,29.89,17,3,31,0.11
2013-2-8,30.3,20.7,11.1,20.9,16.7,9.7,99,85,63,30.35,30.06,14,6,29,0.00
2013-2-9,30.0,22.7,10.0,26.1,20.9,8.9,99,93,81,30.36,30.03,12,4,25,0.00
2013-2-10,41.7,33.4,22.1,41.5,33.0,21.9,99,98,87,30.02,29.37,18,7,37,0.80
2013-2-11,37.4,29.7,24.1,34.1,25.3,19.4,95,83,75,29.97,29.38,30,16,52,0.33
2013-2-12,33.1,24.5,20.3,22.7,18.6,15.2,98,78,62,30.05,29.83,17,7,29,0.00
2013-2-13,41.9,31.6,20.5,32.3,26.1,20.2,99,82,57,29.83,29.64,10,3,21,0.00
2013-2-14,37.4,32.6,26.6,34.4,26.2,20.1,99,78,54,29.97,29.55,21,8,32,0.01
2013-2-15,27.5,20.3,11.3,18.9,8.6,2.6,77,61,40,30.18,29.98,16,8,32,0.00
2013-2-16,19.4,11.8,5.5,4.8,1.2,-1.0,78,63,44,30.17,30.10,12,4,23,0.00
2013-2-17,28.5,17.5,1.2,18.7,7.2,-1.3,90,66,40,30.16,29.88,13,4,24,0.00
2013-2-18,50.0,34.4,22.1,40.8,28.4,18.7,99,80,59,29.87,29.45,15,6,30,0.07
2013-2-19,55.4,13.3,7.3,52.5,8.4,-2.6,99,81,62,30.16,29.55,22,11,36,0.37
2013-2-20,24.9,14.2,4.6,10.1,4.5,-2.8,75,65,52,30.33,30.17,13,6,24,0.00
2013-2-21,24.8,17.7,8.8,24.0,14.2,4.4,99,86,70,30.39,30.02,16,6,38,0.00
2013-2-22,32.2,26.6,22.8,26.8,24.5,22.4,99,92,79,30.00,29.75,16,6,30,0.01
2013-2-23,33.0,25.7,21.6,22.5,19.6,17.3,89,78,60,29.92,29.82,14,8,25,0.00
2013-2-24,43.8,28.5,15.5,25.4,19.1,13.8,96,70,41,30.10,29.92,7,2,13,0.01
2013-2-25,46.1,30.4,16.6,28.3,22.2,14.9,97,74,47,30.13,29.99,9,2,14,0.00
2013-2-26,33.4,29.9,27.0,29.6,26.9,24.3,99,89,73,29.99,29.63,24,12,54,0.51
2013-2-27,32.5,29.7,27.0,32.3,29.5,26.7,99,99,99,29.77,29.61,18,10,36,0.06
2013-2-28,34.9,30.3,23.4,30.5,26.7,18.3,99,87,70,30.11,29.77,17,8,29,0.04